createdAt,value
2018-03-15T00:00:40.891Z,0
2018-03-15T00:01:39.566Z,0
2018-03-15T00:02:38.140Z,0
2018-03-15T00:03:36.713Z,0
2018-03-15T00:04:35.289Z,0
2018-03-15T00:05:33.859Z,0
2018-03-15T00:06:32.431Z,0
2018-03-15T00:07:31.110Z,0
2018-03-15T00:08:29.712Z,0
2018-03-15T00:09:28.255Z,0
2018-03-15T00:10:26.828Z,0
2018-03-15T00:11:25.400Z,0
2018-03-15T00:12:23.974Z,0
2018-03-15T00:13:22.650Z,0
2018-03-15T00:14:21.223Z,0
2018-03-15T00:15:19.814Z,0
2018-03-15T00:16:18.369Z,0
2018-03-15T00:17:16.943Z,0
2018-03-15T00:18:15.619Z,0
2018-03-15T00:19:14.192Z,0
2018-03-15T00:20:12.765Z,0
2018-03-15T00:21:11.338Z,0
2018-03-15T00:22:09.911Z,0
2018-03-15T00:23:08.592Z,0
2018-03-15T00:24:07.160Z,0
2018-03-15T00:25:05.756Z,0
2018-03-15T00:26:04.306Z,0
2018-03-15T00:27:02.923Z,0
2018-03-15T00:28:01.560Z,0
2018-03-15T00:29:00.026Z,0
2018-03-15T00:29:58.703Z,0
2018-03-15T00:30:57.295Z,0
2018-03-15T00:31:55.849Z,0
2018-03-15T00:32:54.481Z,0
2018-03-15T00:33:52.997Z,0
2018-03-15T00:34:51.569Z,0
2018-03-15T00:35:50.244Z,0
2018-03-15T00:36:48.817Z,0
2018-03-15T00:37:47.599Z,0
2018-03-15T00:38:46.067Z,0
2018-03-15T00:39:44.577Z,0
2018-03-15T00:40:43.112Z,0
2018-03-15T00:41:41.787Z,0
2018-03-15T00:42:40.564Z,0
2018-03-15T00:43:38.932Z,0
2018-03-15T00:44:37.506Z,0
2018-03-15T00:45:36.080Z,0
2018-03-15T00:46:34.652Z,0
2018-03-15T00:47:33.328Z,0
2018-03-15T00:48:31.901Z,0
2018-03-15T00:49:30.474Z,0
2018-03-15T00:50:29.054Z,0
2018-03-15T00:51:27.620Z,0
2018-03-15T00:52:26.193Z,0
2018-03-15T00:53:25.074Z,0
2018-03-15T00:54:23.443Z,0
2018-03-15T00:55:22.015Z,0
2018-03-15T00:56:20.589Z,0
2018-03-15T00:57:19.163Z,0
2018-03-15T00:58:17.838Z,0
2018-03-15T00:59:16.412Z,0
2018-03-15T01:00:14.988Z,0
2018-03-15T01:01:13.560Z,0
2018-03-15T01:02:12.132Z,0
2018-03-15T01:03:10.704Z,0
2018-03-15T01:04:09.384Z,0
2018-03-15T01:05:08.056Z,0
2018-03-15T01:06:06.526Z,0
2018-03-15T01:07:05.100Z,0
2018-03-15T01:08:03.674Z,0
2018-03-15T01:09:02.248Z,0
2018-03-15T01:10:00.922Z,0
2018-03-15T01:10:59.496Z,0
2018-03-15T01:11:58.070Z,0
2018-03-15T01:12:56.641Z,0
2018-03-15T01:13:55.219Z,0
2018-03-15T01:14:53.792Z,0
2018-03-15T01:15:52.466Z,0
2018-03-15T01:16:51.037Z,0
2018-03-15T01:17:49.612Z,0
2018-03-15T01:18:48.286Z,0
2018-03-15T01:19:46.757Z,0
2018-03-15T01:20:45.330Z,0
2018-03-15T01:21:44.007Z,0
2018-03-15T01:22:42.580Z,0
2018-03-15T01:23:41.152Z,0
2018-03-15T01:24:39.725Z,0
2018-03-15T01:25:38.298Z,0
2018-03-15T01:26:36.873Z,0
2018-03-15T01:27:35.650Z,0
2018-03-15T01:28:34.121Z,0
2018-03-15T01:29:32.693Z,0
2018-03-15T01:30:31.278Z,0
2018-03-15T01:31:29.843Z,0
2018-03-15T01:32:28.430Z,0
2018-03-15T01:33:27.192Z,0
2018-03-15T01:34:25.662Z,0
2018-03-15T01:35:24.236Z,0
2018-03-15T01:36:22.810Z,0
2018-03-15T01:37:21.389Z,0
2018-03-15T01:38:20.058Z,0
2018-03-15T01:39:18.631Z,0
2018-03-15T01:40:17.204Z,0
2018-03-15T01:41:15.880Z,0
2018-03-15T01:42:14.373Z,0
2018-03-15T01:43:12.925Z,0
2018-03-15T01:44:11.600Z,0
2018-03-15T01:45:10.176Z,0
2018-03-15T01:46:08.747Z,0
2018-03-15T01:47:07.320Z,0
2018-03-15T01:48:05.899Z,0
2018-03-15T01:49:04.469Z,0
2018-03-15T01:50:03.142Z,0
2018-03-15T01:51:01.715Z,0
2018-03-15T01:52:00.410Z,0
2018-03-15T01:52:58.862Z,0
2018-03-15T01:53:57.435Z,0
2018-03-15T01:54:56.114Z,0
2018-03-15T01:55:54.684Z,0
2018-03-15T01:56:53.261Z,0
2018-03-15T01:57:51.830Z,0
2018-03-15T01:58:50.403Z,0
2018-03-15T01:59:48.977Z,0
2018-03-15T02:00:47.549Z,0
2018-03-15T02:01:46.327Z,0
2018-03-15T02:02:44.798Z,0
2018-03-15T02:03:43.371Z,0
2018-03-15T02:04:41.945Z,0
2018-03-15T02:05:40.518Z,0
2018-03-15T02:06:39.092Z,0
2018-03-15T02:07:37.768Z,0
2018-03-15T02:08:36.340Z,0
2018-03-15T02:09:35.118Z,0
2018-03-15T02:10:33.487Z,0
2018-03-15T02:11:32.060Z,0
2018-03-15T02:12:30.638Z,0
2018-03-15T02:13:29.309Z,0
2018-03-15T02:14:27.883Z,0
2018-03-15T02:15:26.558Z,0
2018-03-15T02:16:25.031Z,0
2018-03-15T02:17:23.602Z,0
2018-03-15T02:18:22.278Z,0
2018-03-15T02:19:20.852Z,0
2018-03-15T02:20:19.424Z,0
2018-03-15T02:21:17.998Z,0
2018-03-15T02:22:16.572Z,0
2018-03-15T02:23:15.144Z,0
2018-03-15T02:24:13.820Z,0
2018-03-15T02:25:12.397Z,0
2018-03-15T02:26:10.966Z,0
2018-03-15T02:27:09.543Z,0
2018-03-15T02:28:08.116Z,0
2018-03-15T02:29:06.686Z,0
2018-03-15T02:30:05.464Z,0
2018-03-15T02:31:03.934Z,0
2018-03-15T02:32:02.509Z,0
2018-03-15T02:33:01.082Z,0
2018-03-15T02:33:59.659Z,0
2018-03-15T02:34:58.333Z,0
2018-03-15T02:35:56.904Z,0
2018-03-15T02:36:55.486Z,0
2018-03-15T02:37:54.055Z,0
2018-03-15T02:38:52.623Z,0
2018-03-15T02:39:51.198Z,0
2018-03-15T02:40:49.768Z,0
2018-03-15T02:41:48.446Z,0
2018-03-15T02:42:47.019Z,0
2018-03-15T02:43:45.593Z,0
2018-03-15T02:44:44.166Z,0
2018-03-15T02:45:42.738Z,0
2018-03-15T02:46:41.312Z,0
2018-03-15T02:47:40.090Z,0
2018-03-15T02:48:38.561Z,0
2018-03-15T02:49:37.138Z,0
2018-03-15T02:50:35.709Z,0
2018-03-15T02:51:34.386Z,0
2018-03-15T02:52:32.957Z,0
2018-03-15T02:53:31.633Z,0
2018-03-15T02:54:30.102Z,0
2018-03-15T02:55:28.675Z,0
2018-03-15T02:56:27.354Z,0
2018-03-15T02:57:25.822Z,0
2018-03-15T02:58:24.498Z,0
2018-03-15T02:59:23.073Z,0
2018-03-15T03:00:21.646Z,0
2018-03-15T03:01:20.218Z,0
2018-03-15T03:02:18.791Z,0
2018-03-15T03:03:17.368Z,0
2018-03-15T03:04:16.041Z,0
2018-03-15T03:05:14.613Z,0
2018-03-15T03:06:13.291Z,0
2018-03-15T03:07:11.760Z,0
2018-03-15T03:08:10.334Z,0
2018-03-15T03:09:08.919Z,0
2018-03-15T03:10:07.582Z,0
2018-03-15T03:11:06.157Z,0
2018-03-15T03:12:04.727Z,0
2018-03-15T03:13:03.302Z,0
2018-03-15T03:14:01.875Z,0
2018-03-15T03:15:00.447Z,0
2018-03-15T03:15:59.132Z,0
2018-03-15T03:16:57.696Z,0
2018-03-15T03:17:56.269Z,0
2018-03-15T03:18:54.844Z,0
2018-03-15T03:19:53.519Z,0
2018-03-15T03:20:52.010Z,0
2018-03-15T03:21:50.666Z,0
2018-03-15T03:22:49.238Z,0
2018-03-15T03:23:47.812Z,0
2018-03-15T03:24:46.388Z,0
2018-03-15T03:25:44.959Z,0
2018-03-15T03:26:43.533Z,0
2018-03-15T03:27:42.207Z,0
2018-03-15T03:28:40.787Z,0
2018-03-15T03:29:39.357Z,0
2018-03-15T03:30:37.927Z,0
2018-03-15T03:31:36.501Z,0
2018-03-15T03:32:35.074Z,0
2018-03-15T03:33:33.749Z,0
2018-03-15T03:34:32.322Z,0
2018-03-15T03:35:30.895Z,0
2018-03-15T03:36:29.468Z,0
2018-03-15T03:37:28.042Z,0
2018-03-15T03:38:26.720Z,0
2018-03-15T03:39:25.290Z,0
2018-03-15T03:40:23.864Z,0
2018-03-15T03:41:22.539Z,0
2018-03-15T03:42:21.013Z,0
2018-03-15T03:43:19.584Z,0
2018-03-15T03:44:18.263Z,0
2018-03-15T03:45:16.935Z,0
2018-03-15T03:46:15.406Z,0
2018-03-15T03:47:13.980Z,0
2018-03-15T03:48:12.573Z,0
2018-03-15T03:49:11.125Z,0
2018-03-15T03:50:09.804Z,0
2018-03-15T03:51:08.375Z,0
2018-03-15T03:52:06.948Z,0
2018-03-15T03:53:05.624Z,0
2018-03-15T03:54:04.094Z,0
2018-03-15T03:55:02.668Z,0
2018-03-15T03:56:01.344Z,0
2018-03-15T03:56:59.915Z,0
2018-03-15T03:57:58.491Z,0
2018-03-15T03:58:57.063Z,0
2018-03-15T03:59:55.741Z,0
2018-03-15T04:00:54.210Z,0
2018-03-15T04:01:52.886Z,0
2018-03-15T04:02:51.458Z,0
2018-03-15T04:03:50.032Z,0
2018-03-15T04:04:48.706Z,0
2018-03-15T04:05:47.177Z,0
2018-03-15T04:06:45.854Z,0
2018-03-15T04:07:44.427Z,0
2018-03-15T04:08:43.000Z,0
2018-03-15T04:09:41.595Z,0
2018-03-15T04:10:40.145Z,0
2018-03-15T04:11:38.720Z,0
2018-03-15T04:12:37.292Z,0
2018-03-15T04:13:36.070Z,0
2018-03-15T04:14:34.541Z,0
2018-03-15T04:15:33.123Z,0
2018-03-15T04:16:31.687Z,0
2018-03-15T04:17:30.262Z,0
2018-03-15T04:18:28.836Z,0
2018-03-15T04:19:27.509Z,0
2018-03-15T04:20:26.097Z,0
2018-03-15T04:21:24.657Z,0
2018-03-15T04:22:23.234Z,0
2018-03-15T04:23:21.907Z,0
2018-03-15T04:24:20.480Z,0
2018-03-15T04:25:19.053Z,0
2018-03-15T04:26:17.626Z,0
2018-03-15T04:27:16.200Z,0
2018-03-15T04:28:14.779Z,0
2018-03-15T04:29:13.346Z,0
2018-03-15T04:30:12.035Z,0
2018-03-15T04:31:10.595Z,0
2018-03-15T04:32:09.167Z,0
2018-03-15T04:33:07.843Z,0
2018-03-15T04:34:06.315Z,0
2018-03-15T04:35:04.890Z,0
2018-03-15T04:36:03.563Z,0
2018-03-15T04:37:02.137Z,0
2018-03-15T04:38:00.709Z,0
2018-03-15T04:38:59.385Z,0
2018-03-15T04:39:57.855Z,0
2018-03-15T04:40:56.432Z,0
2018-03-15T04:41:55.104Z,0
2018-03-15T04:42:53.682Z,0
2018-03-15T04:43:52.250Z,0
2018-03-15T04:44:50.824Z,0
2018-03-15T04:45:49.401Z,0
2018-03-15T04:46:47.971Z,0
2018-03-15T04:47:46.655Z,0
2018-03-15T04:48:45.221Z,0
2018-03-15T04:49:43.796Z,0
2018-03-15T04:50:42.365Z,0
2018-03-15T04:51:40.940Z,0
2018-03-15T04:52:39.513Z,0
2018-03-15T04:53:38.290Z,0
2018-03-15T04:54:36.872Z,0
2018-03-15T04:55:35.542Z,0
2018-03-15T04:56:33.908Z,0
2018-03-15T04:57:32.480Z,0
2018-03-15T04:58:31.058Z,0
2018-03-15T04:59:29.730Z,0
2018-03-15T05:00:28.303Z,0
2018-03-15T05:01:26.877Z,0
2018-03-15T05:02:25.453Z,0
2018-03-15T05:03:24.026Z,0
2018-03-15T05:04:22.698Z,0
2018-03-15T05:05:21.272Z,0
2018-03-15T05:06:20.050Z,0
2018-03-15T05:07:18.519Z,0
2018-03-15T05:08:16.992Z,0
2018-03-15T05:09:15.565Z,0
2018-03-15T05:10:14.653Z,0
2018-03-15T05:11:12.917Z,0
2018-03-15T05:12:11.387Z,0
2018-03-15T05:13:09.963Z,0
2018-03-15T05:14:08.539Z,0
2018-03-15T05:15:07.106Z,0
2018-03-15T05:16:05.782Z,0
2018-03-15T05:17:04.357Z,0
2018-03-15T05:18:03.034Z,0
2018-03-15T05:19:01.502Z,0
2018-03-15T05:20:00.074Z,0
2018-03-15T05:20:58.648Z,0
2018-03-15T05:21:57.325Z,0
2018-03-15T05:22:55.896Z,0
2018-03-15T05:23:54.470Z,0
2018-03-15T05:24:53.044Z,0
2018-03-15T05:25:51.617Z,0
2018-03-15T05:26:50.190Z,0
2018-03-15T05:27:48.868Z,0
2018-03-15T05:28:47.440Z,0
2018-03-15T05:29:46.013Z,0
2018-03-15T05:30:44.689Z,0
2018-03-15T05:31:43.159Z,0
2018-03-15T05:32:41.732Z,0
2018-03-15T05:33:40.409Z,0
2018-03-15T05:34:39.003Z,0
2018-03-15T05:35:37.554Z,0
2018-03-15T05:36:36.127Z,0
2018-03-15T05:37:34.728Z,0
2018-03-15T05:38:33.381Z,0
2018-03-15T05:39:31.949Z,0
2018-03-15T05:40:30.523Z,0
2018-03-15T05:41:29.096Z,0
2018-03-15T05:42:27.670Z,0
2018-03-15T05:43:26.243Z,0
2018-03-15T05:44:24.943Z,0
2018-03-15T05:45:23.491Z,0
2018-03-15T05:46:22.065Z,2
2018-03-15T05:47:20.739Z,2
2018-03-15T05:48:19.211Z,2
2018-03-15T05:49:17.784Z,2
2018-03-15T05:50:16.460Z,2
2018-03-15T05:51:15.137Z,2
2018-03-15T05:52:13.607Z,2
2018-03-15T05:53:12.180Z,2
2018-03-15T05:54:10.753Z,2
2018-03-15T05:55:09.326Z,2
2018-03-15T05:56:08.012Z,2
2018-03-15T05:57:06.579Z,2
2018-03-15T05:58:05.166Z,2
2018-03-15T05:59:03.722Z,2
2018-03-15T06:00:02.294Z,2
2018-03-15T06:01:00.869Z,2
2018-03-15T06:01:59.546Z,2
2018-03-15T06:02:58.116Z,2
2018-03-15T06:03:56.692Z,2
2018-03-15T06:04:55.264Z,2
2018-03-15T06:05:53.837Z,2
2018-03-15T06:06:52.410Z,2
2018-03-15T06:07:51.090Z,2
2018-03-15T06:08:49.659Z,2
2018-03-15T06:09:48.234Z,5
2018-03-15T06:10:46.808Z,5
2018-03-15T06:11:45.379Z,5
2018-03-15T06:12:44.055Z,5
2018-03-15T06:13:42.631Z,5
2018-03-15T06:14:41.201Z,5
2018-03-15T06:15:39.774Z,5
2018-03-15T06:16:38.347Z,5
2018-03-15T06:17:36.921Z,5
2018-03-15T06:18:35.493Z,5
2018-03-15T06:19:34.169Z,5
2018-03-15T06:20:32.743Z,5
2018-03-15T06:21:31.418Z,5
2018-03-15T06:22:29.897Z,5
2018-03-15T06:23:28.465Z,8
2018-03-15T06:24:27.137Z,8
2018-03-15T06:25:25.710Z,8
2018-03-15T06:26:24.291Z,8
2018-03-15T06:27:22.960Z,8
2018-03-15T06:28:21.441Z,8
2018-03-15T06:29:20.003Z,8
2018-03-15T06:30:18.682Z,8
2018-03-15T06:31:17.356Z,8
2018-03-15T06:32:15.928Z,8
2018-03-15T06:33:14.404Z,8
2018-03-15T06:34:12.980Z,8
2018-03-15T06:35:11.546Z,8
2018-03-15T06:36:10.222Z,8
2018-03-15T06:37:08.794Z,8
2018-03-15T06:38:07.369Z,11
2018-03-15T06:39:05.941Z,11
2018-03-15T06:40:04.722Z,11
2018-03-15T06:41:03.193Z,11
2018-03-15T06:42:01.764Z,11
2018-03-15T06:43:00.338Z,11
2018-03-15T06:43:58.910Z,11
2018-03-15T06:44:57.484Z,11
2018-03-15T06:45:56.057Z,11
2018-03-15T06:46:54.628Z,11
2018-03-15T06:47:53.305Z,11
2018-03-15T06:48:51.878Z,11
2018-03-15T06:49:50.554Z,11
2018-03-15T06:50:49.025Z,11
2018-03-15T06:51:47.598Z,11
2018-03-15T06:52:46.172Z,11
2018-03-15T06:53:44.848Z,11
2018-03-15T06:54:43.521Z,14
2018-03-15T06:55:41.993Z,11
2018-03-15T06:56:40.567Z,11
2018-03-15T06:57:39.141Z,11
2018-03-15T06:58:37.714Z,11
2018-03-15T06:59:36.389Z,11
2018-03-15T07:00:35.067Z,14
2018-03-15T07:01:33.638Z,14
2018-03-15T07:02:32.109Z,11
2018-03-15T07:03:30.701Z,14
2018-03-15T07:04:29.357Z,11
2018-03-15T07:05:27.931Z,11
2018-03-15T07:06:26.504Z,11
2018-03-15T07:07:25.078Z,11
2018-03-15T07:08:23.652Z,11
2018-03-15T07:09:22.226Z,11
2018-03-15T07:10:20.918Z,11
2018-03-15T07:11:19.575Z,11
2018-03-15T07:12:18.045Z,11
2018-03-15T07:13:16.619Z,11
2018-03-15T07:14:15.192Z,11
2018-03-15T07:15:13.765Z,11
2018-03-15T07:16:12.545Z,11
2018-03-15T07:17:11.014Z,11
2018-03-15T07:18:09.589Z,11
2018-03-15T07:19:08.162Z,11
2018-03-15T07:20:06.740Z,11
2018-03-15T07:21:05.307Z,11
2018-03-15T07:22:03.983Z,11
2018-03-15T07:23:02.556Z,11
2018-03-15T07:24:01.130Z,11
2018-03-15T07:24:59.806Z,11
2018-03-15T07:25:58.380Z,11
2018-03-15T07:26:56.849Z,11
2018-03-15T07:27:55.526Z,11
2018-03-15T07:28:54.098Z,11
2018-03-15T07:29:52.671Z,11
2018-03-15T07:30:51.244Z,11
2018-03-15T07:31:49.819Z,11
2018-03-15T07:32:48.391Z,11
2018-03-15T07:33:47.073Z,11
2018-03-15T07:34:45.640Z,14
2018-03-15T07:35:44.213Z,14
2018-03-15T07:36:42.791Z,14
2018-03-15T07:37:41.359Z,14
2018-03-15T07:38:39.927Z,14
2018-03-15T07:39:38.711Z,14
2018-03-15T07:40:37.181Z,14
2018-03-15T07:41:35.758Z,14
2018-03-15T07:42:34.329Z,14
2018-03-15T07:43:32.902Z,14
2018-03-15T07:44:31.578Z,14
2018-03-15T07:45:30.254Z,17
2018-03-15T07:46:28.725Z,17
2018-03-15T07:47:27.297Z,17
2018-03-15T07:48:25.870Z,17
2018-03-15T07:49:24.445Z,17
2018-03-15T07:50:23.119Z,17
2018-03-15T07:51:21.693Z,20
2018-03-15T07:52:20.270Z,20
2018-03-15T07:53:18.942Z,20
2018-03-15T07:54:17.414Z,20
2018-03-15T07:55:15.985Z,20
2018-03-15T07:56:14.660Z,20
2018-03-15T07:57:13.235Z,20
2018-03-15T07:58:11.806Z,20
2018-03-15T07:59:10.382Z,20
2018-03-15T08:00:09.057Z,20
2018-03-15T08:01:07.529Z,20
2018-03-15T08:02:06.203Z,20
2018-03-15T08:03:04.776Z,20
2018-03-15T08:04:03.350Z,23
2018-03-15T08:05:02.045Z,23
2018-03-15T08:06:00.500Z,23
2018-03-15T08:06:59.069Z,23
2018-03-15T08:07:57.749Z,23
2018-03-15T08:08:56.318Z,25
2018-03-15T08:09:54.891Z,25
2018-03-15T08:10:53.464Z,25
2018-03-15T08:11:52.037Z,25
2018-03-15T08:12:50.611Z,25
2018-03-15T08:13:49.290Z,25
2018-03-15T08:14:47.860Z,25
2018-03-15T08:15:46.454Z,20
2018-03-15T08:16:45.007Z,20
2018-03-15T08:17:43.580Z,20
2018-03-15T08:18:42.256Z,20
2018-03-15T08:19:40.931Z,20
2018-03-15T08:20:39.414Z,20
2018-03-15T08:21:37.976Z,20
2018-03-15T08:22:36.553Z,23
2018-03-15T08:23:35.122Z,23
2018-03-15T08:24:33.798Z,23
2018-03-15T08:25:32.403Z,23
2018-03-15T08:26:30.944Z,23
2018-03-15T08:27:29.516Z,23
2018-03-15T08:28:28.192Z,23
2018-03-15T08:29:26.664Z,23
2018-03-15T08:30:25.339Z,25
2018-03-15T08:31:23.913Z,23
2018-03-15T08:32:22.486Z,25
2018-03-15T08:33:21.080Z,25
2018-03-15T08:34:19.633Z,25
2018-03-15T08:35:18.206Z,25
2018-03-15T08:36:16.902Z,25
2018-03-15T08:37:15.455Z,25
2018-03-15T08:38:14.136Z,25
2018-03-15T08:39:12.600Z,25
2018-03-15T08:40:11.175Z,25
2018-03-15T08:41:09.747Z,25
2018-03-15T08:42:08.424Z,25
2018-03-15T08:43:06.996Z,25
2018-03-15T08:44:05.570Z,28
2018-03-15T08:45:04.145Z,28
2018-03-15T08:46:02.716Z,28
2018-03-15T08:47:01.289Z,25
2018-03-15T08:47:59.966Z,25
2018-03-15T08:48:58.640Z,25
2018-03-15T08:49:57.112Z,25
2018-03-15T08:50:55.684Z,25
2018-03-15T08:51:54.257Z,28
2018-03-15T08:52:52.831Z,31
2018-03-15T08:53:51.559Z,31
2018-03-15T08:54:50.081Z,34
2018-03-15T08:55:48.756Z,34
2018-03-15T08:56:47.226Z,34
2018-03-15T08:57:45.902Z,34
2018-03-15T08:58:44.476Z,40
2018-03-15T08:59:43.050Z,40
2018-03-15T09:00:41.622Z,43
2018-03-15T09:01:40.201Z,43
2018-03-15T09:02:38.781Z,43
2018-03-15T09:03:37.343Z,46
2018-03-15T09:04:36.367Z,46
2018-03-15T09:05:34.590Z,46
2018-03-15T09:06:33.164Z,46
2018-03-15T09:07:31.763Z,46
2018-03-15T09:08:30.310Z,46
2018-03-15T09:09:28.885Z,54
2018-03-15T09:10:27.558Z,60
2018-03-15T09:11:26.133Z,60
2018-03-15T09:12:24.706Z,60
2018-03-15T09:13:23.279Z,60
2018-03-15T09:14:21.853Z,63
2018-03-15T09:15:20.528Z,69
2018-03-15T09:16:19.100Z,69
2018-03-15T09:17:17.674Z,69
2018-03-15T09:18:16.247Z,74
2018-03-15T09:19:14.821Z,74
2018-03-15T09:20:13.393Z,80
2018-03-15T09:21:11.967Z,77
2018-03-15T09:22:10.644Z,80
2018-03-15T09:23:09.267Z,80
2018-03-15T09:24:07.790Z,80
2018-03-15T09:25:06.363Z,74
2018-03-15T09:26:04.935Z,60
2018-03-15T09:27:03.515Z,74
2018-03-15T09:28:02.184Z,80
2018-03-15T09:29:00.786Z,80
2018-03-15T09:29:59.334Z,86
2018-03-15T09:30:57.904Z,83
2018-03-15T09:31:56.486Z,77
2018-03-15T09:32:55.154Z,80
2018-03-15T09:33:53.727Z,83
2018-03-15T09:34:52.308Z,86
2018-03-15T09:35:50.872Z,83
2018-03-15T09:36:49.446Z,83
2018-03-15T09:37:48.020Z,83
2018-03-15T09:38:46.696Z,89
2018-03-15T09:39:45.287Z,89
2018-03-15T09:40:43.841Z,92
2018-03-15T09:41:42.414Z,83
2018-03-15T09:42:41.011Z,77
2018-03-15T09:43:39.566Z,74
2018-03-15T09:44:38.238Z,77
2018-03-15T09:45:36.811Z,80
2018-03-15T09:46:35.384Z,69
2018-03-15T09:47:33.958Z,80
2018-03-15T09:48:32.530Z,66
2018-03-15T09:49:31.103Z,51
2018-03-15T09:50:29.778Z,51
2018-03-15T09:51:28.365Z,46
2018-03-15T09:52:26.948Z,46
2018-03-15T09:53:25.601Z,46
2018-03-15T09:54:24.077Z,46
2018-03-15T09:55:22.748Z,48
2018-03-15T09:56:21.321Z,48
2018-03-15T09:57:19.894Z,48
2018-03-15T09:58:18.492Z,57
2018-03-15T09:59:17.040Z,57
2018-03-15T10:00:15.719Z,63
2018-03-15T10:01:14.186Z,63
2018-03-15T10:02:12.969Z,60
2018-03-15T10:03:11.539Z,74
2018-03-15T10:04:10.008Z,83
2018-03-15T10:05:08.589Z,66
2018-03-15T10:06:07.156Z,66
2018-03-15T10:07:05.729Z,60
2018-03-15T10:08:04.407Z,60
2018-03-15T10:09:03.026Z,74
2018-03-15T10:10:01.550Z,74
2018-03-15T10:11:00.125Z,60
2018-03-15T10:11:58.697Z,57
2018-03-15T10:12:57.270Z,54
2018-03-15T10:13:55.947Z,46
2018-03-15T10:14:54.532Z,46
2018-03-15T10:15:53.093Z,46
2018-03-15T10:16:51.666Z,46
2018-03-15T10:17:50.253Z,48
2018-03-15T10:18:48.915Z,51
2018-03-15T10:19:47.493Z,51
2018-03-15T10:20:46.163Z,54
2018-03-15T10:21:44.641Z,54
2018-03-15T10:22:43.207Z,60
2018-03-15T10:23:41.782Z,63
2018-03-15T10:24:40.458Z,69
2018-03-15T10:25:39.030Z,66
2018-03-15T10:26:37.609Z,63
2018-03-15T10:27:36.176Z,69
2018-03-15T10:28:34.749Z,74
2018-03-15T10:29:33.325Z,77
2018-03-15T10:30:31.998Z,74
2018-03-15T10:31:30.571Z,66
2018-03-15T10:32:29.147Z,69
2018-03-15T10:33:27.719Z,66
2018-03-15T10:34:26.292Z,60
2018-03-15T10:35:24.864Z,63
2018-03-15T10:36:23.643Z,74
2018-03-15T10:37:22.115Z,74
2018-03-15T10:38:20.788Z,66
2018-03-15T10:39:19.263Z,63
2018-03-15T10:40:17.832Z,60
2018-03-15T10:41:16.407Z,57
2018-03-15T10:42:15.086Z,57
2018-03-15T10:43:13.658Z,60
2018-03-15T10:44:12.229Z,60
2018-03-15T10:45:10.800Z,48
2018-03-15T10:46:09.379Z,48
2018-03-15T10:47:07.948Z,57
2018-03-15T10:48:06.623Z,51
2018-03-15T10:49:05.198Z,57
2018-03-15T10:50:03.771Z,57
2018-03-15T10:51:02.344Z,54
2018-03-15T10:52:00.919Z,54
2018-03-15T10:52:59.490Z,54
2018-03-15T10:53:58.166Z,57
2018-03-15T10:54:56.739Z,60
2018-03-15T10:55:55.315Z,57
2018-03-15T10:56:53.906Z,57
2018-03-15T10:57:52.461Z,57
2018-03-15T10:58:51.134Z,54
2018-03-15T10:59:49.735Z,51
2018-03-15T11:00:48.384Z,51
2018-03-15T11:01:46.854Z,54
2018-03-15T11:02:45.428Z,57
2018-03-15T11:03:44.000Z,60
2018-03-15T11:04:42.675Z,69
2018-03-15T11:05:41.251Z,74
2018-03-15T11:06:39.925Z,80
2018-03-15T11:07:38.396Z,92
2018-03-15T11:08:36.969Z,97
2018-03-15T11:09:35.645Z,80
2018-03-15T11:10:34.220Z,74
2018-03-15T11:11:32.807Z,77
2018-03-15T11:12:31.365Z,80
2018-03-15T11:13:29.971Z,95
2018-03-15T11:14:28.512Z,103
2018-03-15T11:15:27.185Z,115
2018-03-15T11:16:25.765Z,118
2018-03-15T11:17:24.333Z,123
2018-03-15T11:18:23.008Z,129
2018-03-15T11:19:21.582Z,129
2018-03-15T11:20:20.053Z,138
2018-03-15T11:21:18.628Z,132
2018-03-15T11:22:17.302Z,123
2018-03-15T11:23:15.875Z,115
2018-03-15T11:24:14.552Z,115
2018-03-15T11:25:13.023Z,112
2018-03-15T11:26:11.596Z,112
2018-03-15T11:27:10.173Z,109
2018-03-15T11:28:08.946Z,112
2018-03-15T11:29:07.418Z,109
2018-03-15T11:30:06.014Z,103
2018-03-15T11:31:04.563Z,103
2018-03-15T11:32:03.240Z,100
2018-03-15T11:33:01.733Z,97
2018-03-15T11:34:00.386Z,89
2018-03-15T11:34:58.959Z,83
2018-03-15T11:35:57.533Z,80
2018-03-15T11:36:56.105Z,74
2018-03-15T11:37:54.677Z,80
2018-03-15T11:38:53.354Z,80
2018-03-15T11:39:51.928Z,92
2018-03-15T11:40:50.501Z,89
2018-03-15T11:41:49.075Z,100
2018-03-15T11:42:47.647Z,103
2018-03-15T11:43:46.280Z,112
2018-03-15T11:44:44.896Z,118
2018-03-15T11:45:43.469Z,118
2018-03-15T11:46:42.053Z,123
2018-03-15T11:47:40.616Z,149
2018-03-15T11:48:39.189Z,161
2018-03-15T11:49:37.763Z,155
2018-03-15T11:50:36.515Z,164
2018-03-15T11:51:35.012Z,161
2018-03-15T11:52:33.585Z,178
2018-03-15T11:53:32.158Z,187
2018-03-15T11:54:30.732Z,192
2018-03-15T11:55:29.305Z,192
2018-03-15T11:56:27.983Z,192
2018-03-15T11:57:26.554Z,192
2018-03-15T11:58:25.127Z,195
2018-03-15T11:59:23.699Z,187
2018-03-15T12:00:22.273Z,195
2018-03-15T12:01:20.845Z,187
2018-03-15T12:02:19.524Z,195
2018-03-15T12:03:18.102Z,192
2018-03-15T12:04:16.669Z,192
2018-03-15T12:05:15.258Z,195
2018-03-15T12:06:13.815Z,192
2018-03-15T12:07:12.399Z,181
2018-03-15T12:08:11.071Z,190
2018-03-15T12:09:09.636Z,190
2018-03-15T12:10:08.211Z,187
2018-03-15T12:11:06.782Z,178
2018-03-15T12:12:05.359Z,175
2018-03-15T12:13:03.931Z,181
2018-03-15T12:14:02.606Z,175
2018-03-15T12:15:01.281Z,169
2018-03-15T12:15:59.751Z,172
2018-03-15T12:16:58.428Z,175
2018-03-15T12:17:56.905Z,175
2018-03-15T12:18:55.574Z,175
2018-03-15T12:19:54.148Z,155
2018-03-15T12:20:52.741Z,161
2018-03-15T12:21:51.295Z,161
2018-03-15T12:22:49.867Z,161
2018-03-15T12:23:48.546Z,155
2018-03-15T12:24:47.115Z,152
2018-03-15T12:25:45.689Z,155
2018-03-15T12:26:44.262Z,155
2018-03-15T12:27:42.836Z,141
2018-03-15T12:28:41.408Z,95
2018-03-15T12:29:39.981Z,80
2018-03-15T12:30:38.674Z,80
2018-03-15T12:31:37.231Z,95
2018-03-15T12:32:35.804Z,106
2018-03-15T12:33:34.480Z,112
2018-03-15T12:34:32.951Z,129
2018-03-15T12:35:31.527Z,138
2018-03-15T12:36:30.201Z,138
2018-03-15T12:37:28.772Z,144
2018-03-15T12:38:27.346Z,144
2018-03-15T12:39:25.920Z,144
2018-03-15T12:40:24.492Z,135
2018-03-15T12:41:23.065Z,129
2018-03-15T12:42:21.741Z,126
2018-03-15T12:43:20.418Z,118
2018-03-15T12:44:18.899Z,118
2018-03-15T12:45:17.462Z,112
2018-03-15T12:46:16.038Z,109
2018-03-15T12:47:14.608Z,103
2018-03-15T12:48:13.385Z,97
2018-03-15T12:49:11.866Z,100
2018-03-15T12:50:10.429Z,103
2018-03-15T12:51:09.009Z,106
2018-03-15T12:52:07.580Z,106
2018-03-15T12:53:06.149Z,106
2018-03-15T12:54:04.825Z,106
2018-03-15T12:55:03.400Z,103
2018-03-15T12:56:01.972Z,95
2018-03-15T12:57:00.546Z,95
2018-03-15T12:57:59.121Z,92
2018-03-15T12:58:57.696Z,92
2018-03-15T12:59:56.367Z,86
2018-03-15T13:00:54.940Z,83
2018-03-15T13:01:53.532Z,80
2018-03-15T13:02:52.298Z,80
2018-03-15T13:03:50.660Z,74
2018-03-15T13:04:49.439Z,72
2018-03-15T13:05:47.909Z,74
2018-03-15T13:06:46.484Z,69
2018-03-15T13:07:45.057Z,69
2018-03-15T13:08:43.628Z,60
2018-03-15T13:09:42.202Z,60
2018-03-15T13:10:40.885Z,60
2018-03-15T13:11:39.451Z,60
2018-03-15T13:12:38.024Z,57
2018-03-15T13:13:36.600Z,57
2018-03-15T13:14:35.177Z,54
2018-03-15T13:15:33.745Z,51
2018-03-15T13:16:32.419Z,48
2018-03-15T13:17:30.992Z,57
2018-03-15T13:18:29.571Z,46
2018-03-15T13:19:28.142Z,43
2018-03-15T13:20:26.712Z,43
2018-03-15T13:21:25.388Z,40
2018-03-15T13:22:23.967Z,40
2018-03-15T13:23:22.536Z,37
2018-03-15T13:24:21.109Z,37
2018-03-15T13:25:19.681Z,37
2018-03-15T13:26:18.255Z,34
2018-03-15T13:27:16.827Z,34
2018-03-15T13:28:15.502Z,34
2018-03-15T13:29:14.078Z,34
2018-03-15T13:30:12.788Z,34
2018-03-15T13:31:11.223Z,34
2018-03-15T13:32:09.799Z,34
2018-03-15T13:33:08.375Z,34
2018-03-15T13:34:07.045Z,34
2018-03-15T13:35:05.618Z,34
2018-03-15T13:36:04.191Z,34
2018-03-15T13:37:02.764Z,34
2018-03-15T13:38:01.338Z,34
2018-03-15T13:38:59.910Z,34
2018-03-15T13:39:58.587Z,34
2018-03-15T13:40:57.160Z,34
2018-03-15T13:41:55.734Z,34
2018-03-15T13:42:54.308Z,34
2018-03-15T13:43:52.879Z,31
2018-03-15T13:44:51.666Z,28
2018-03-15T13:45:50.128Z,31
2018-03-15T13:46:48.703Z,28
2018-03-15T13:47:47.378Z,25
2018-03-15T13:48:45.857Z,25
2018-03-15T13:49:44.454Z,25
2018-03-15T13:50:43.098Z,25
2018-03-15T13:51:41.670Z,23
2018-03-15T13:52:40.245Z,23
2018-03-15T13:53:38.817Z,20
2018-03-15T13:54:37.391Z,20
2018-03-15T13:55:35.963Z,20
2018-03-15T13:56:34.640Z,20
2018-03-15T13:57:33.230Z,17
2018-03-15T13:58:31.785Z,17
2018-03-15T13:59:30.362Z,14
2018-03-15T14:00:29.036Z,14
2018-03-15T14:01:27.506Z,14
2018-03-15T14:02:26.285Z,14
2018-03-15T14:03:24.958Z,14
2018-03-15T14:04:23.326Z,11
2018-03-15T14:05:22.003Z,11
2018-03-15T14:06:20.474Z,11